Latest Weather Observations for Ngukurr AWS

IDD60801

Issued at 8:01 am CST Thursday 30 March 2017 (issued every 30 minutes, with the page automatically refreshed every 10 minutes)

About weather observations | Map of weather stations | Latest weather observations for NT | Other Formats
Station Details ID: 014299 Name: NGUKURR AIRPORT Lat: -14.72 Lon: 134.75 Height: 14.46 m
Data from the previous 72 hours. | See also: Recent months at Ngukurr AWS
Date/Time
CST
Temp
°C
App
Temp
°C
Dew
Point
°C
Rel
Hum
%
Delta-T
°C
Wind Press
QNH
hPa
Press
MSL
hPa
Rain since
9am
mm
Dir  Spd
km/h
Gust
km/h
Spd
kts
Gust
kts
30/08:00am 26.8 30.5 22.6 78 2.8 WNW 7 9 4 5 1009.5 1009.4 0.0
30/07:30am 26.1 30.1 22.8 82 2.2 WNW 6 9 3 5 1008.9 1008.8 0.0
30/07:00am 25.3 29.1 22.4 84 1.9 W 6 7 3 4 1008.5 1008.4 0.0
30/06:30am 24.9 28.7 22.4 86 1.7 WSW 6 7 3 4 1008.2 1008.1 0.0
30/06:00am 25.0 29.2 22.5 86 1.7 W 4 6 2 3 1008.0 1007.9 0.0
30/05:30am 25.1 29.2 22.2 84 1.9 W 4 7 2 4 1007.7 1007.6 0.0
30/05:00am 25.2 29.3 22.3 84 1.9 W 4 6 2 3 1007.3 1007.2 0.0
30/04:30am 25.4 29.4 22.1 82 2.2 WSW 4 4 2 2 1007.0 1006.9 0.0
30/04:00am 25.7 29.8 22.2 81 2.3 W 4 6 2 3 1007.0 1006.9 0.0
30/03:30am 26.3 30.9 21.7 76 3.1 CALM 0 0 0 0 1006.8 1006.7 0.0
30/03:00am 26.6 30.3 21.4 73 3.5 W 4 6 2 3 1006.8 1006.7 0.0
30/02:30am 26.9 30.2 20.7 69 4.1 W 4 7 2 4 1006.9 1006.8 0.0
30/02:00am 27.5 30.7 20.6 66 4.5 W 4 7 2 4 1007.0 1006.9 0.0
30/01:30am 28.4 31.1 20.7 63 5.1 NW 7 11 4 6 1007.2 1007.1 0.0
30/01:00am 28.8 31.0 21.8 66 4.7 WNW 13 20 7 11 1007.9 1007.8 0.0
30/12:30am 29.4 33.0 23.1 69 4.3 NW 9 17 5 9 1008.2 1008.1 0.0
30/12:00am 29.6 33.3 23.3 69 4.3 NNW 9 17 5 9 1007.7 1007.6 0.0
 
Date/Time
CST
Temp
°C
App
Temp
°C
Dew
Point
°C
Rel
Hum
%
Delta-T
°C
Wind Press
QNH
hPa
Press
MSL
hPa
Rain since
9am
mm
Dir  Spd
km/h
Gust
km/h
Spd
kts
Gust
kts
29/11:30pm 29.4 33.6 23.1 69 4.3 N 6 11 3 6 1007.4 1007.3 0.0
29/11:00pm 28.8 33.3 23.0 71 4.0 W 4 6 2 3 1007.4 1007.3 0.0
29/10:30pm 29.5 34.4 23.0 68 4.5 SSW 2 6 1 3 1007.3 1007.2 0.0
29/10:00pm 29.8 33.2 21.7 61 5.5 W 6 9 3 5 1007.3 1007.2 0.0
29/09:30pm 30.7 33.9 21.2 57 6.4 S 6 7 3 4 1006.5 1006.4 0.0
29/09:00pm 31.2 34.7 22.2 58 6.1 W 7 11 4 6 1007.0 1006.9 0.0
29/08:30pm 31.5 36.8 24.9 68 4.7 NNE 6 9 3 5 1006.0 1005.9 0.0
29/08:00pm 31.8 36.5 24.9 67 4.9 SSW 9 15 5 8 1005.1 1005.0 0.0
29/07:30pm 32.3 39.6 26.8 73 4.0 WNW 2 4 1 2 1004.6 1004.5 0.0
29/07:00pm 33.3 40.5 26.1 66 5.2 CALM 0 4 0 2 1004.3 1004.2 0.0
29/06:30pm 35.1 41.2 25.6 58 6.8 NW 4 6 2 3 1003.8 1003.7 0.0
29/06:00pm 37.8 44.6 25.6 50 8.8 CALM 0 0 0 0 1003.5 1003.4 0.0
29/05:30pm 38.4 42.8 22.8 40 10.9 SW 4 6 2 3 1003.3 1003.2 0.0
29/05:00pm 38.3 42.5 23.1 41 10.6 SW 6 13 3 7 1003.3 1003.2 0.0
29/04:30pm 38.2 41.8 23.0 41 10.6 SW 9 19 5 10 1002.9 1002.8 0.0
29/04:00pm 38.0 41.9 23.6 43 10.1 SSW 9 15 5 8 1002.9 1002.8 0.0
29/03:30pm 38.1 42.1 23.7 43 10.2 W 9 17 5 9 1003.2 1003.1 0.0
29/03:00pm 37.8 41.8 23.8 44 9.9 SW 9 22 5 12 1003.7 1003.6 0.0
29/02:30pm 37.1 39.8 22.8 43 10.0 WSW 13 20 7 11 1004.2 1004.1 0.0
29/02:00pm 37.2 41.0 24.0 46 9.3 SW 11 20 6 11 1004.8 1004.7 0.0
29/01:30pm 37.1 41.8 24.9 49 8.7 SW 9 17 5 9 1005.2 1005.1 0.0
29/01:00pm 36.0 40.3 24.9 52 7.9 SW 11 19 6 10 1005.4 1005.3 0.0
29/12:30pm 35.7 40.0 24.9 53 7.7 WSW 11 19 6 10 1005.9 1005.8 0.0
29/12:00pm 35.1 39.1 25.0 56 7.2 WSW 13 22 7 12 1006.5 1006.4 0.0
29/11:30am 34.9 39.1 25.4 58 6.8 WSW 13 22 7 12 1007.1 1007.0 0.0
29/11:00am 34.3 38.0 24.5 56 6.9 SW 13 24 7 13 1007.3 1007.2 0.0
29/10:30am 33.6 37.3 24.5 59 6.4 WSW 13 19 7 10 1007.6 1007.5 0.0
29/10:00am 32.8 37.2 25.1 64 5.4 WSW 11 19 6 10 1008.0 1007.9 0.0
29/09:30am 31.5 34.9 24.1 65 5.2 WSW 13 22 7 12 1008.1 1008.0 0.0
29/09:00am 31.0 35.1 24.6 68 4.5 WSW 11 19 6 10 1008.0 1007.9 0.0
29/08:30am 29.5 34.6 25.0 77 3.2 W 7 13 4 7 1008.2 1008.1 0.0
29/08:00am 28.4 33.8 25.2 83 2.2 WNW 6 7 3 4 1007.9 1007.8 0.0
29/07:30am 27.0 33.1 25.6 92 1.0 WNW 4 6 2 3 1007.4 1007.3 0.0
29/07:00am 26.1 32.7 25.2 95 0.6 CALM 0 0 0 0 1007.1 1007.0 0.0
29/06:30am 26.0 31.4 25.1 95 0.6 W 6 7 3 4 1006.7 1006.6 0.0
29/06:00am 26.0 32.0 25.5 97 0.4 W 4 6 2 3 1006.4 1006.3 0.0
29/05:30am 25.6 31.9 25.3 98 0.2 WSW 2 6 1 3 1006.1 1006.0 0.0
29/05:00am 25.6 31.5 25.3 98 0.2 SW 4 7 2 4 1005.8 1005.7 0.0
29/04:30am 25.8 32.1 25.3 97 0.4 WNW 2 2 1 1 1005.6 1005.5 0.0
29/04:00am 25.7 32.2 25.0 96 0.5 CALM 0 0 0 0 1005.3 1005.2 0.0
29/03:30am 26.1 32.4 24.7 92 1.0 CALM 0 0 0 0 1005.2 1005.1 0.0
29/03:00am 26.5 32.5 24.3 88 1.5 CALM 0 4 0 2 1005.2 1005.1 0.0
29/02:30am 26.7 31.6 24.4 87 1.6 WNW 6 7 3 4 1005.2 1005.1 0.0
29/02:00am 26.8 31.9 24.6 88 1.5 W 6 9 3 5 1005.4 1005.3 0.0
29/01:30am 26.6 31.8 24.8 90 1.3 WNW 6 7 3 4 1005.8 1005.7 0.0
29/01:00am 26.9 32.4 24.7 88 1.5 W 4 7 2 4 1006.5 1006.4 0.0
29/12:30am 27.1 32.4 24.4 85 1.9 WNW 4 7 2 4 1006.8 1006.7 0.0
29/12:00am 27.6 32.2 24.2 82 2.4 W 7 13 4 7 1007.0 1006.9 0.0
 
Date/Time
CST
Temp
°C
App
Temp
°C
Dew
Point
°C
Rel
Hum
%
Delta-T
°C
Wind Press
QNH
hPa
Press
MSL
hPa
Rain since
9am
mm
Dir  Spd
km/h
Gust
km/h
Spd
kts
Gust
kts
28/11:30pm 27.6 32.4 24.2 82 2.4 W 6 11 3 6 1007.1 1007.0 0.0
28/11:00pm 27.8 32.9 24.0 80 2.6 W 4 6 2 3 1007.2 1007.1 0.0
28/10:30pm 28.4 33.1 24.0 77 3.0 W 6 7 3 4 1007.4 1007.3 0.0
28/10:00pm 28.1 34.4 24.7 82 2.4 CALM 0 2 0 1 1007.6 1007.5 0.0
28/09:30pm 27.9 33.7 24.5 82 2.4 WNW 2 6 1 3 1007.5 1007.4 0.0
28/09:00pm 28.4 33.7 24.4 79 2.8 NW 4 4 2 2 1007.2 1007.1 0.0
28/08:30pm 28.4 33.5 24.0 77 3.0 WNW 4 6 2 3 1006.9 1006.8 0.0
28/08:00pm 28.5 33.6 24.1 77 3.0 NW 4 7 2 4 1006.4 1006.3 0.0
28/07:30pm 28.6 33.9 23.7 75 3.4 NW 2 4 1 2 1005.9 1005.8 0.0
28/07:00pm 28.6 32.7 23.3 73 3.6 WNW 7 11 4 6 1005.5 1005.4 0.0
28/06:30pm 29.2 32.6 22.7 68 4.4 W 9 15 5 8 1005.2 1005.1 0.0
28/06:00pm 29.9 33.2 22.6 65 5.0 W 9 15 5 8 1004.8 1004.7 0.0
28/05:30pm 31.3 34.9 23.1 61 5.7 WSW 9 15 5 8 1004.6 1004.5 0.0
28/05:00pm 33.8 37.1 22.6 52 7.7 SW 9 20 5 11 1004.6 1004.5 0.0
28/04:30pm 34.3 37.2 23.9 54 7.3 WSW 15 22 8 12 1004.2 1004.1 0.0
28/04:00pm 37.1 41.8 23.9 46 9.3 WNW 6 13 3 7 1004.5 1004.4 0.0
28/03:30pm 36.5 41.8 23.7 47 9.0 SSW 2 6 1 3 1004.2 1004.1 0.0
28/03:00pm 36.3 41.1 24.2 49 8.6 SW 6 9 3 5 1004.7 1004.6 0.0
28/02:30pm 36.9 41.3 25.1 51 8.4 WSW 11 17 6 9 1005.3 1005.2 0.0
28/02:00pm 36.3 41.0 25.5 54 7.7 WSW 11 22 6 12 1005.9 1005.8 0.0
28/01:30pm 36.0 41.3 25.8 55 7.3 SW 9 20 5 11 1006.4 1006.3 0.0
28/01:00pm 35.3 39.8 25.2 56 7.2 SW 11 19 6 10 1006.9 1006.8 0.0
28/12:30pm 34.8 40.1 25.9 60 6.4 WSW 9 17 5 9 1007.4 1007.3 0.0
28/12:00pm 34.6 40.1 26.2 61 6.1 WSW 9 17 5 9 1008.1 1008.0 0.0
28/11:30am 33.6 38.3 25.0 60 6.1 WSW 9 19 5 10 1008.5 1008.4 0.0
28/11:00am 33.1 38.4 25.9 66 5.1 SW 9 19 5 10 1008.8 1008.7 0.0
28/10:30am 32.4 36.8 25.7 68 4.8 WSW 13 20 7 11 1009.1 1009.0 0.0
28/10:00am 31.6 36.3 25.5 70 4.3 W 11 19 6 10 1009.4 1009.3 0.0
28/09:30am 31.0 35.6 25.4 72 4.0 W 11 20 6 11 1009.4 1009.3 0.0
28/09:00am 30.4 35.1 25.5 75 3.5 WSW 11 19 6 10 1009.5 1009.4 0.0
28/08:30am 29.4 34.1 24.9 77 3.2 W 9 17 5 9 1009.2 1009.1 0.0
28/08:00am 28.1 34.2 25.7 87 1.7 W 4 7 2 4 1009.2 1009.1 0.0
28/07:30am 27.6 33.2 25.8 90 1.3 W 7 11 4 6 1008.9 1008.8 0.0
28/07:00am 26.1 32.7 25.8 98 0.2 NW 2 4 1 2 1008.5 1008.4 0.0
28/06:30am 25.7 32.4 25.4 98 0.2 CALM 0 0 0 0 1007.9 1007.8 0.0
28/06:00am 26.2 32.8 25.2 94 0.7 CALM 0 0 0 0 1007.4 1007.3 0.0
28/05:30am 26.2 31.9 25.0 93 0.8 W 4 6 2 3 1007.1 1007.0 0.0
28/05:00am 26.1 32.3 25.2 95 0.6 W 2 4 1 2 1006.8 1006.7 0.0
28/04:30am 26.4 32.7 24.8 91 1.1 CALM 0 0 0 0 1006.7 1006.6 0.0
28/04:00am 26.5 32.6 24.5 89 1.4 CALM 0 4 0 2 1006.7 1006.6 0.0
28/03:30am 26.6 32.8 24.6 89 1.4 CALM 0 0 0 0 1006.7 1006.6 0.0
28/03:00am 27.3 32.9 24.2 83 2.1 NW 2 4 1 2 1007.1 1007.0 0.0
28/02:30am 28.0 33.1 24.0 79 2.8 N 4 6 2 3 1007.2 1007.1 0.0
28/02:00am 28.3 33.0 23.9 77 3.0 NW 6 13 3 7 1007.3 1007.2 0.0
28/01:30am 28.4 33.7 24.4 79 2.8 NW 4 9 2 5 1007.7 1007.6 0.0
28/01:00am 28.5 33.6 24.7 80 2.7 NNW 6 7 3 4 1007.8 1007.7 0.0
28/12:30am 29.1 34.4 24.9 78 2.9 N 6 9 3 5 1008.1 1008.0 0.0
28/12:00am 28.9 34.4 25.3 81 2.5 N 6 9 3 5 1008.2 1008.1 0.0
 
Date/Time
CST
Temp
°C
App
Temp
°C
Dew
Point
°C
Rel
Hum
%
Delta-T
°C
Wind Press
QNH
hPa
Press
MSL
hPa
Rain since
9am
mm
Dir  Spd
km/h
Gust
km/h
Spd
kts
Gust
kts
27/11:30pm 28.9 35.0 25.7 83 2.3 NNE 4 4 2 2 1008.5 1008.4 0.0
27/11:00pm 28.4 35.5 26.0 87 1.7 CALM 0 2 0 1 1008.7 1008.6 0.0
27/10:30pm 29.1 35.2 25.7 82 2.4 N 4 4 2 2 1008.7 1008.6 0.0
27/10:00pm 28.7 35.0 25.9 85 2.0 N 4 6 2 3 1008.5 1008.4 0.0
27/09:30pm 28.9 35.0 25.7 83 2.3 N 4 6 2 3 1008.1 1008.0 0.0
27/09:00pm 29.3 35.7 26.1 83 2.3 N 4 4 2 2 1007.6 1007.5 0.0
27/08:30pm 29.8 36.5 26.0 80 2.7 N 2 6 1 3 1007.3 1007.2 0.0
27/08:00pm 29.7 37.5 27.1 86 1.9 CALM 0 0 0 0 1007.0 1006.9 0.0
27/07:30pm 30.4 37.6 26.1 78 3.1 CALM 0 0 0 0 1006.6 1006.5 0.0
27/07:00pm 31.2 37.9 26.5 76 3.4 N 4 4 2 2 1006.3 1006.2 0.0
27/06:30pm 32.5 37.9 24.5 62 5.6 N 4 4 2 2 1006.0 1005.9 0.0
27/06:00pm 33.5 38.1 23.8 57 6.8 N 6 7 3 4 1005.6 1005.5 0.0
27/05:30pm 33.5 37.4 22.6 53 7.5 NNE 6 9 3 5 1005.5 1005.4 0.0
27/05:00pm 35.4 39.4 22.0 45 9.2 SSE 4 15 2 8 1005.4 1005.3 0.0
27/04:30pm 36.4 41.1 23.3 47 9.2 SSW 4 6 2 3 1005.4 1005.3 0.0
27/04:00pm 36.8 42.0 23.6 46 9.3 SSW 2 7 1 4 1005.8 1005.7 0.0
27/03:30pm 36.6 41.3 23.4 46 9.2 NW 4 6 2 3 1006.2 1006.1 0.0
27/03:00pm 36.9 42.4 24.1 48 9.0 W 2 6 1 3 1006.6 1006.5 0.0
27/02:30pm 36.6 42.4 24.5 50 8.6 W 2 6 1 3 1006.7 1006.6 0.0
27/02:00pm 36.2 41.9 24.4 50 8.3 WNW 2 6 1 3 1007.2 1007.1 0.0
27/01:30pm 35.1 40.2 25.0 56 7.2 SSW 7 15 4 8 1007.7 1007.6 0.0
27/01:00pm 34.8 40.3 25.3 57 6.8 WSW 6 11 3 6 1008.1 1008.0 0.0
27/12:30pm 34.2 38.9 25.0 58 6.5 SSW 9 15 5 8 1008.5 1008.4 0.0
27/12:00pm 33.7 38.9 25.1 60 6.1 W 7 13 4 7 1009.0 1008.9 0.0
27/11:30am 33.4 38.6 25.1 61 5.9 WSW 7 15 4 8 1009.5 1009.4 0.0
27/11:00am 32.8 38.6 26.1 68 4.8 W 7 17 4 9 1009.9 1009.8 0.0
27/10:30am 31.6 35.6 25.0 68 4.7 W 13 22 7 12 1010.3 1010.2 0.0
27/10:00am 31.1 35.6 25.2 71 4.2 W 11 24 6 13 1010.7 1010.6 0.0
27/09:30am 30.3 35.0 25.6 76 3.3 WSW 11 15 6 8 1010.8 1010.7 0.0
27/09:00am 29.9 35.2 25.9 79 2.8 W 9 19 5 10 1010.7 1010.6 0.2
27/08:30am 29.0 34.8 26.0 84 2.1 W 7 11 4 6 1010.7 1010.6 0.2

Other Formats:

Comma delimited format used in spreadsheet applications
http://www.bom.gov.au/fwo/IDD60801/IDD60801.94106.axf

JavaScript Object Notation format (JSON) in row-major order
http://www.bom.gov.au/fwo/IDD60801/IDD60801.94106.json